createdAt,value
2023-12-11T00:01:10.209Z,4.20
2023-12-11T00:03:38.689Z,3.08
2023-12-11T00:06:08.589Z,4.45
2023-12-11T00:08:37.119Z,4.30
2023-12-11T00:11:05.366Z,4.53
2023-12-11T00:13:33.406Z,3.67
2023-12-11T00:16:01.381Z,4.20
2023-12-11T00:18:29.457Z,4.40
2023-12-11T00:20:57.438Z,4.60
2023-12-11T00:23:27.340Z,3.97
2023-12-11T00:25:55.235Z,3.88
2023-12-11T00:28:23.112Z,4.00
2023-12-11T00:30:52.225Z,3.97
2023-12-11T00:33:20.394Z,4.25
2023-12-11T00:35:48.398Z,3.92
2023-12-11T00:38:16.276Z,3.97
2023-12-11T00:40:47.836Z,4.93
2023-12-11T00:43:15.823Z,3.70
2023-12-11T00:45:43.938Z,3.83
2023-12-11T00:48:12.036Z,3.70
2023-12-11T00:50:40.015Z,3.97
2023-12-11T00:53:08.368Z,3.50
2023-12-11T00:55:36.330Z,3.95
2023-12-11T00:58:05.654Z,3.60
2023-12-11T01:00:33.636Z,3.53
2023-12-11T01:03:01.926Z,3.78
2023-12-11T01:05:29.869Z,4.90
2023-12-11T01:07:58.108Z,4.13
2023-12-11T01:10:26.007Z,4.55
2023-12-11T01:12:53.912Z,3.13
2023-12-11T01:15:23.400Z,3.50
2023-12-11T01:17:51.582Z,3.78
2023-12-11T01:20:19.679Z,4.20
2023-12-11T01:22:47.582Z,3.65
2023-12-11T01:25:15.667Z,4.38
2023-12-11T01:27:43.581Z,3.67
2023-12-11T01:30:12.033Z,3.00
2023-12-11T01:32:41.307Z,3.90
2023-12-11T01:35:09.920Z,3.50
2023-12-11T01:37:37.827Z,3.63
2023-12-11T01:40:08.445Z,4.22
2023-12-11T01:42:36.614Z,3.25
2023-12-11T01:45:04.935Z,4.60
2023-12-11T01:47:33.337Z,4.35
2023-12-11T01:50:02.937Z,3.60
2023-12-11T01:52:30.978Z,4.05
2023-12-11T01:54:58.985Z,3.63
2023-12-11T01:57:27.013Z,5.07
2023-12-11T01:59:55.013Z,4.03
2023-12-11T02:02:22.942Z,2.40
2023-12-11T02:04:55.148Z,2.95
2023-12-11T02:07:24.597Z,3.80
2023-12-11T02:09:52.596Z,3.70
2023-12-11T02:12:20.509Z,3.00
2023-12-11T02:14:48.387Z,3.38
2023-12-11T02:17:16.313Z,3.65
2023-12-11T02:19:44.381Z,3.47
2023-12-11T02:22:12.686Z,3.75
2023-12-11T02:24:48.475Z,3.05
2023-12-11T02:27:18.032Z,3.75
2023-12-11T02:29:45.920Z,3.42
2023-12-11T02:32:17.523Z,3.83
2023-12-11T02:34:47.798Z,3.58
2023-12-11T02:37:15.807Z,3.25
2023-12-11T02:39:43.736Z,2.80
2023-12-11T02:42:11.604Z,3.08
2023-12-11T02:44:40.935Z,4.50
2023-12-11T02:47:08.909Z,3.38
2023-12-11T02:49:36.937Z,3.65
2023-12-11T02:52:05.193Z,2.85
2023-12-11T02:54:33.107Z,3.08
2023-12-11T02:57:01.055Z,3.08
2023-12-11T02:59:28.921Z,3.85
2023-12-11T03:01:58.253Z,3.20
2023-12-11T03:04:26.362Z,3.38
2023-12-11T03:06:54.436Z,3.30
2023-12-11T03:09:22.329Z,3.28
2023-12-11T03:11:50.205Z,3.33
2023-12-11T03:14:18.090Z,2.67
2023-12-11T03:16:49.284Z,3.60
2023-12-11T03:19:19.101Z,3.70
2023-12-11T03:21:47.137Z,3.97
2023-12-11T03:24:15.016Z,3.33
2023-12-11T03:26:42.893Z,3.83
2023-12-11T03:29:10.778Z,3.67
2023-12-11T03:31:39.204Z,3.45
2023-12-11T03:34:07.220Z,2.92
2023-12-11T03:36:36.544Z,3.75
2023-12-11T03:39:04.517Z,3.70
2023-12-11T03:41:32.412Z,3.33
2023-12-11T03:44:00.299Z,2.67
2023-12-11T03:46:28.202Z,3.70
2023-12-11T03:48:56.223Z,4.35
2023-12-11T03:51:24.211Z,3.25
2023-12-11T03:53:53.460Z,2.78
2023-12-11T03:56:21.334Z,3.42
2023-12-11T03:58:49.205Z,4.18
2023-12-11T04:01:17.214Z,3.45
2023-12-11T04:03:45.276Z,3.35
2023-12-11T04:06:13.310Z,3.20
2023-12-11T04:08:42.990Z,4.00
2023-12-11T04:11:12.233Z,2.70
2023-12-11T04:13:40.295Z,2.85
2023-12-11T04:16:08.706Z,3.88
2023-12-11T04:18:37.876Z,2.67
2023-12-11T04:21:06.496Z,3.85
2023-12-11T04:23:34.387Z,3.15
2023-12-11T04:26:03.324Z,3.38
2023-12-11T04:28:32.591Z,3.40
2023-12-11T04:31:00.575Z,4.40
2023-12-11T04:33:28.613Z,2.70
2023-12-11T04:35:56.872Z,3.80
2023-12-11T04:38:24.790Z,3.83
2023-12-11T04:40:52.704Z,2.70
2023-12-11T04:43:20.576Z,3.70
2023-12-11T04:45:50.327Z,3.38
2023-12-11T04:48:18.356Z,4.18
2023-12-11T04:50:46.313Z,3.38
2023-12-11T04:53:14.235Z,3.75
2023-12-11T04:55:42.469Z,3.05
2023-12-11T04:58:10.681Z,3.75
2023-12-11T05:00:39.075Z,4.45
2023-12-11T05:03:08.385Z,3.30
2023-12-11T05:05:37.369Z,3.10
2023-12-11T05:08:05.773Z,4.15
2023-12-11T05:10:35.200Z,3.30
2023-12-11T05:13:03.221Z,2.83
2023-12-11T05:15:31.121Z,3.55
2023-12-11T05:17:59.041Z,3.90
2023-12-11T05:20:28.302Z,4.32
2023-12-11T05:22:56.204Z,2.70
2023-12-11T05:25:24.321Z,3.08
2023-12-11T05:27:52.300Z,5.00
2023-12-11T05:30:23.556Z,3.70
2023-12-11T05:32:52.515Z,2.65
2023-12-11T05:35:20.454Z,2.50
2023-12-11T05:37:49.736Z,2.63
2023-12-11T05:40:22.637Z,3.40
2023-12-11T05:42:52.339Z,2.58
2023-12-11T05:45:20.398Z,3.65
2023-12-11T05:47:48.521Z,3.70
2023-12-11T05:50:16.539Z,2.10
2023-12-11T05:52:45.417Z,2.47
2023-12-11T05:55:15.149Z,3.30
2023-12-11T05:57:44.142Z,3.70
2023-12-11T06:00:14.013Z,3.33
2023-12-11T06:02:42.075Z,3.40
2023-12-11T06:05:10.781Z,2.88
2023-12-11T06:07:38.773Z,3.05
2023-12-11T06:10:07.826Z,2.53
2023-12-11T06:12:37.149Z,3.17
2023-12-11T06:15:05.788Z,3.28
2023-12-11T06:17:34.126Z,2.85
2023-12-11T06:20:02.527Z,2.83
2023-12-11T06:22:30.364Z,2.97
2023-12-11T06:24:58.283Z,2.58
2023-12-11T06:27:28.941Z,2.88
2023-12-11T06:29:58.506Z,2.40
2023-12-11T06:32:26.412Z,2.45
2023-12-11T06:34:54.563Z,2.40
2023-12-11T06:37:22.585Z,3.53
2023-12-11T06:39:50.902Z,2.05
2023-12-11T06:42:18.802Z,3.83
2023-12-11T06:44:46.757Z,2.15
2023-12-11T06:47:16.008Z,2.42
2023-12-11T06:49:45.509Z,2.38
2023-12-11T06:52:14.007Z,2.45
2023-12-11T06:54:42.054Z,2.03
2023-12-11T06:57:09.933Z,2.70
2023-12-11T06:59:37.852Z,2.33
2023-12-11T07:02:06.507Z,2.58
2023-12-11T07:04:35.951Z,2.80
2023-12-11T07:07:04.038Z,2.22
2023-12-11T07:09:32.412Z,2.90
2023-12-11T07:12:00.403Z,2.10
2023-12-11T07:14:28.313Z,2.38
2023-12-11T07:16:56.198Z,2.42
2023-12-11T07:19:24.228Z,1.50
2023-12-11T07:21:56.237Z,1.95
2023-12-11T07:24:26.435Z,2.55
2023-12-11T07:26:54.341Z,2.53
2023-12-11T07:29:22.240Z,1.77
2023-12-11T07:31:50.120Z,2.33
2023-12-11T07:34:18.426Z,2.70
2023-12-11T07:36:46.445Z,1.70
2023-12-11T07:39:15.698Z,2.17
2023-12-11T07:41:43.665Z,2.13
2023-12-11T07:44:11.584Z,2.55
2023-12-11T07:46:42.284Z,2.08
2023-12-11T07:49:13.878Z,2.13
2023-12-11T07:51:41.985Z,1.50
2023-12-11T07:54:09.944Z,2.17
2023-12-11T07:56:39.221Z,2.00
2023-12-11T07:59:07.353Z,1.98
2023-12-11T08:01:35.413Z,2.10
2023-12-11T08:04:04.001Z,2.05
2023-12-11T08:06:32.554Z,2.22
2023-12-11T08:09:01.391Z,2.13
2023-12-11T08:11:29.919Z,1.77
2023-12-11T08:13:59.727Z,2.50
2023-12-11T08:16:28.059Z,2.13
2023-12-11T08:18:56.006Z,2.10
2023-12-11T08:21:25.238Z,2.28
2023-12-11T08:23:53.739Z,2.10
2023-12-11T08:26:22.141Z,2.88
2023-12-11T08:28:50.628Z,2.50
2023-12-11T08:31:20.170Z,2.08
2023-12-11T08:33:48.498Z,2.53
2023-12-11T08:36:16.480Z,2.75
2023-12-11T08:38:44.486Z,2.22
2023-12-11T08:41:12.495Z,2.40
2023-12-11T08:43:40.437Z,2.38
2023-12-11T08:46:08.405Z,2.15
2023-12-11T08:48:37.909Z,2.53
2023-12-11T08:51:06.927Z,1.80
2023-12-11T08:53:34.837Z,2.40
2023-12-11T08:56:02.745Z,1.58
2023-12-11T08:58:30.713Z,2.00
2023-12-11T09:00:58.670Z,2.05
2023-12-11T09:03:26.888Z,2.67
2023-12-11T09:05:57.706Z,2.40
2023-12-11T09:10:54.962Z,3.10
2023-12-11T09:13:26.517Z,1.83
2023-12-11T09:15:56.425Z,2.63
2023-12-11T09:18:24.647Z,2.47
2023-12-11T09:20:52.638Z,2.47
2023-12-11T09:23:22.074Z,2.20
2023-12-11T09:25:49.984Z,2.22
2023-12-11T09:28:17.930Z,2.42
2023-12-11T09:30:45.963Z,2.53
2023-12-11T09:33:14.533Z,3.30
2023-12-11T09:35:42.941Z,2.70
2023-12-11T09:38:11.428Z,2.80
2023-12-11T09:40:40.890Z,3.00
2023-12-11T09:43:11.058Z,2.83
2023-12-11T09:45:40.326Z,2.70
2023-12-11T09:48:14.410Z,2.03
2023-12-11T09:50:43.554Z,2.60
2023-12-11T09:53:11.667Z,2.60
2023-12-11T09:55:40.914Z,3.00
2023-12-11T09:58:10.103Z,3.75
2023-12-11T10:00:38.565Z,2.67
2023-12-11T10:03:09.339Z,2.70
2023-12-11T10:05:38.248Z,3.00
2023-12-11T10:08:06.413Z,3.13
2023-12-11T10:10:35.344Z,3.25
2023-12-11T10:13:05.002Z,3.22
2023-12-11T10:15:34.400Z,3.05
2023-12-11T10:18:07.225Z,3.10
2023-12-11T10:20:36.078Z,1.98
2023-12-11T10:23:15.070Z,2.15
2023-12-11T10:25:46.470Z,2.72
2023-12-11T10:28:17.570Z,2.83
2023-12-11T10:33:21.944Z,2.45
2023-12-11T10:35:50.565Z,2.75
2023-12-11T10:38:25.392Z,1.70
2023-12-11T10:40:54.108Z,2.10
2023-12-11T10:43:23.534Z,2.10
2023-12-11T10:45:52.781Z,2.10
2023-12-11T10:48:22.449Z,2.45
2023-12-11T10:50:51.549Z,2.17
2023-12-11T10:53:20.319Z,2.00
2023-12-11T10:55:50.624Z,2.25
2023-12-11T10:58:19.052Z,2.60
2023-12-11T11:00:49.024Z,2.53
2023-12-11T11:03:19.606Z,2.10
2023-12-11T11:05:48.754Z,2.03
2023-12-11T11:08:24.622Z,2.03
2023-12-11T11:10:56.957Z,2.00
2023-12-11T11:13:32.141Z,1.90
2023-12-11T11:16:01.435Z,2.42
2023-12-11T11:18:29.483Z,2.35
2023-12-11T11:21:13.788Z,2.40
2023-12-11T11:23:44.406Z,1.70
2023-12-11T11:26:35.754Z,2.15
2023-12-11T11:29:04.960Z,1.77
2023-12-11T11:31:58.607Z,1.75
2023-12-11T11:34:45.742Z,2.03
2023-12-11T11:37:18.435Z,1.83
2023-12-11T11:40:00.270Z,1.70
2023-12-11T11:42:29.421Z,1.38
2023-12-11T11:44:58.407Z,1.52
2023-12-11T11:47:27.953Z,1.80
2023-12-11T11:50:04.803Z,1.65
2023-12-11T11:52:32.898Z,1.80
2023-12-11T11:55:07.182Z,1.63
2023-12-11T11:57:35.057Z,2.00
2023-12-11T12:00:02.947Z,2.33
2023-12-11T12:02:34.453Z,1.52
2023-12-11T12:05:10.985Z,2.00
2023-12-11T12:07:40.586Z,1.67
2023-12-11T12:10:09.647Z,1.70
2023-12-11T12:12:37.570Z,1.90
2023-12-11T12:15:08.817Z,1.67
2023-12-11T12:17:39.863Z,1.40
2023-12-11T12:20:12.312Z,1.38
2023-12-11T12:22:40.569Z,1.92
2023-12-11T12:25:16.864Z,1.85
2023-12-11T12:27:45.858Z,1.70
2023-12-11T12:30:15.014Z,2.08
2023-12-11T12:32:44.927Z,2.88
2023-12-11T12:35:13.367Z,1.90
2023-12-11T12:37:41.601Z,1.90
2023-12-11T12:40:10.741Z,2.03
2023-12-11T12:42:39.033Z,2.25
2023-12-11T12:45:08.114Z,1.90
2023-12-11T12:47:36.079Z,2.22
2023-12-11T12:50:08.050Z,2.33
2023-12-11T12:52:37.819Z,2.20
2023-12-11T12:55:06.603Z,2.35
2023-12-11T12:57:37.561Z,2.15
2023-12-11T13:00:06.850Z,1.90
2023-12-11T13:02:34.794Z,1.92
2023-12-11T13:05:03.179Z,2.05
2023-12-11T13:07:32.817Z,1.85
2023-12-11T13:10:11.464Z,2.20
2023-12-11T13:12:39.590Z,1.98
2023-12-11T13:15:08.908Z,1.98
2023-12-11T13:17:37.327Z,2.63
2023-12-11T13:20:06.206Z,2.10
2023-12-11T13:22:39.934Z,2.00
2023-12-11T13:25:09.234Z,2.40
2023-12-11T13:27:37.129Z,2.22
2023-12-11T13:30:06.807Z,2.05
2023-12-11T13:32:36.516Z,2.30
2023-12-11T13:35:04.464Z,2.53
2023-12-11T13:37:32.512Z,1.90
2023-12-11T13:40:01.951Z,2.20
2023-12-11T13:42:29.776Z,2.35
2023-12-11T13:44:59.743Z,2.25
2023-12-11T13:47:28.172Z,2.25
2023-12-11T13:49:56.299Z,2.45
2023-12-11T13:52:24.398Z,2.47
2023-12-11T13:54:52.580Z,2.50
2023-12-11T13:57:21.968Z,2.40
2023-12-11T13:59:50.453Z,2.35
2023-12-11T14:02:57.963Z,2.75
2023-12-11T14:05:07.208Z,2.45
2023-12-11T14:07:35.392Z,2.40
2023-12-11T14:10:04.465Z,2.70
2023-12-11T14:12:33.659Z,2.72
2023-12-11T14:15:01.574Z,2.47
2023-12-11T14:17:29.782Z,2.20
2023-12-11T14:19:57.854Z,2.40
2023-12-11T14:22:25.761Z,2.65
2023-12-11T14:24:54.649Z,2.50
2023-12-11T14:27:24.113Z,2.35
2023-12-11T14:29:54.050Z,2.53
2023-12-11T14:32:21.908Z,2.40
2023-12-11T14:34:49.943Z,2.20
2023-12-11T14:37:18.091Z,2.20
2023-12-11T14:39:46.584Z,2.47
2023-12-11T14:42:14.424Z,2.03
2023-12-11T14:44:42.486Z,2.67
2023-12-11T14:47:11.637Z,2.38
2023-12-11T14:49:39.709Z,1.85
2023-12-11T14:52:07.750Z,2.03
2023-12-11T14:54:35.694Z,1.98
2023-12-11T14:57:03.998Z,1.90
2023-12-11T14:59:31.843Z,2.00
2023-12-11T15:01:59.720Z,2.20
2023-12-11T15:04:29.062Z,1.85
2023-12-11T15:06:57.009Z,2.10
2023-12-11T15:09:24.836Z,2.08
2023-12-11T15:11:52.673Z,2.13
2023-12-11T15:14:21.063Z,2.10
2023-12-11T15:16:49.277Z,2.25
2023-12-11T15:19:17.672Z,2.33
2023-12-11T15:21:47.158Z,2.22
2023-12-11T15:24:15.077Z,2.15
2023-12-11T15:26:42.882Z,1.95
2023-12-11T15:29:10.707Z,1.90
2023-12-11T15:31:38.535Z,2.40
2023-12-11T15:34:06.469Z,2.30
2023-12-11T15:36:34.350Z,2.10
2023-12-11T15:39:04.709Z,1.80
2023-12-11T15:41:33.334Z,2.10
2023-12-11T15:44:01.182Z,2.10
2023-12-11T15:46:29.123Z,2.58
2023-12-11T15:48:57.167Z,2.17
2023-12-11T15:51:26.949Z,2.25
2023-12-11T15:53:54.830Z,2.25
2023-12-11T15:56:24.013Z,2.40
2023-12-11T15:58:51.847Z,2.05
2023-12-11T16:01:20.119Z,2.20
2023-12-11T16:03:48.178Z,2.50
2023-12-11T16:06:16.108Z,2.55
2023-12-11T16:08:43.956Z,3.60
2023-12-11T16:11:15.361Z,2.20
2023-12-11T16:13:44.794Z,2.53
2023-12-11T16:16:13.271Z,2.95
2023-12-11T16:18:41.715Z,2.97
2023-12-11T16:21:09.794Z,2.63
2023-12-11T16:23:38.055Z,3.28
2023-12-11T16:26:06.395Z,3.20
2023-12-11T16:28:35.389Z,2.85
2023-12-11T16:31:04.902Z,2.50
2023-12-11T16:33:32.949Z,2.80
2023-12-11T16:36:00.904Z,2.67
2023-12-11T16:38:28.696Z,2.60
2023-12-11T16:40:56.699Z,2.63
2023-12-11T16:43:24.638Z,2.50
2023-12-11T16:45:52.561Z,3.13
2023-12-11T16:48:21.889Z,2.83
2023-12-11T16:50:49.966Z,3.05
2023-12-11T16:53:17.881Z,3.28
2023-12-11T16:55:45.705Z,2.92
2023-12-11T16:58:13.590Z,2.83
2023-12-11T17:00:41.506Z,2.90
2023-12-11T17:03:09.383Z,2.88
2023-12-11T17:05:38.624Z,3.20
2023-12-11T17:08:06.959Z,2.80
2023-12-11T17:10:34.909Z,3.00
2023-12-11T17:13:03.561Z,3.28
2023-12-11T17:15:31.456Z,3.00
2023-12-11T17:17:59.366Z,2.80
2023-12-11T17:20:27.298Z,3.03
2023-12-11T17:22:56.511Z,3.22
2023-12-11T17:25:24.412Z,3.10
2023-12-11T17:27:52.379Z,3.05
2023-12-11T17:30:20.834Z,3.47
2023-12-11T17:32:49.230Z,3.40
2023-12-11T17:35:18.372Z,3.17
2023-12-11T17:37:46.321Z,3.38
2023-12-11T17:40:16.688Z,3.97
2023-12-11T17:42:45.075Z,3.05
2023-12-11T17:45:13.923Z,3.80
2023-12-11T17:47:42.075Z,4.35
2023-12-11T17:50:11.063Z,3.45
2023-12-11T17:52:39.535Z,3.63
2023-12-11T17:55:08.380Z,3.30
2023-12-11T17:57:37.946Z,2.80
2023-12-11T18:00:07.896Z,3.42
2023-12-11T18:02:35.766Z,3.95
2023-12-11T18:05:05.933Z,4.13
2023-12-11T18:07:34.359Z,3.58
2023-12-11T18:10:02.406Z,4.55
2023-12-11T18:12:30.308Z,4.05
2023-12-11T18:15:00.544Z,3.80
2023-12-11T18:17:28.539Z,3.75
2023-12-11T18:19:56.578Z,3.85
2023-12-11T18:22:25.980Z,4.10
2023-12-11T18:24:54.047Z,4.03
2023-12-11T18:27:22.064Z,3.03
2023-12-11T18:29:49.885Z,4.25
2023-12-11T18:32:19.335Z,7.18
2023-12-11T18:34:54.018Z,4.00
2023-12-11T18:37:23.044Z,4.32
2023-12-11T18:39:50.966Z,4.88
2023-12-11T18:42:18.832Z,7.75
2023-12-11T18:44:46.732Z,4.75
2023-12-11T18:47:14.554Z,4.50
2023-12-11T18:49:44.390Z,4.75
2023-12-11T18:52:15.510Z,4.82
2023-12-11T18:54:43.924Z,4.50
2023-12-11T18:57:13.058Z,4.10
2023-12-11T18:59:40.914Z,4.60
2023-12-11T19:02:09.158Z,4.47
2023-12-11T19:04:37.384Z,7.47
2023-12-11T19:07:07.197Z,7.22
2023-12-11T19:09:35.112Z,6.22
2023-12-11T19:12:03.131Z,5.95
2023-12-11T19:14:30.966Z,5.28
2023-12-11T19:16:58.882Z,5.93
2023-12-11T19:19:26.789Z,6.88
2023-12-11T19:21:54.811Z,5.70
2023-12-11T19:24:24.794Z,4.82
2023-12-11T19:26:52.626Z,4.43
2023-12-11T19:29:20.489Z,5.05
2023-12-11T19:31:48.410Z,5.22
2023-12-11T19:34:17.090Z,5.20
2023-12-11T19:36:45.144Z,5.05
2023-12-11T19:39:13.290Z,4.70
2023-12-11T19:41:44.699Z,4.72
2023-12-11T19:44:12.586Z,4.88
2023-12-11T19:46:44.616Z,3.95
2023-12-11T19:49:12.927Z,4.68
2023-12-11T19:51:44.109Z,3.85
2023-12-11T19:56:39.855Z,4.72
2023-12-11T19:59:09.357Z,4.85
2023-12-11T20:01:37.212Z,5.55
2023-12-11T20:04:05.269Z,5.28
2023-12-11T20:06:33.158Z,4.20
2023-12-11T20:09:01.017Z,4.35
2023-12-11T20:11:29.608Z,4.78
2023-12-11T20:13:57.555Z,4.88
2023-12-11T20:16:26.885Z,4.10
2023-12-11T20:18:54.957Z,5.28
2023-12-11T20:21:22.927Z,5.05
2023-12-11T20:23:51.104Z,5.32
2023-12-11T20:26:22.506Z,3.72
2023-12-11T20:28:50.370Z,3.85
2023-12-11T20:31:19.029Z,4.70
2023-12-11T20:33:48.649Z,5.75
2023-12-11T20:36:17.654Z,6.10
2023-12-11T20:38:45.671Z,5.72
2023-12-11T20:41:20.533Z,5.03
2023-12-11T20:43:49.472Z,5.78
2023-12-11T20:46:24.655Z,3.85
2023-12-11T20:48:55.200Z,4.30
2023-12-11T20:51:24.126Z,5.05
2023-12-11T20:53:53.343Z,5.57
2023-12-11T20:56:21.893Z,4.18
2023-12-11T20:58:50.560Z,5.55
2023-12-11T21:01:28.257Z,6.10
2023-12-11T21:03:58.514Z,4.88
2023-12-11T21:06:27.532Z,7.10
2023-12-11T21:08:56.260Z,7.22
2023-12-11T21:11:24.679Z,4.65
2023-12-11T21:13:52.533Z,4.47
2023-12-11T21:16:20.976Z,4.25
2023-12-11T21:18:50.557Z,4.82
2023-12-11T21:21:21.232Z,4.28
2023-12-11T21:23:49.800Z,5.20
2023-12-11T21:26:20.965Z,5.88
2023-12-11T21:29:00.528Z,7.70
2023-12-11T21:31:30.479Z,9.27
2023-12-11T21:33:59.678Z,6.30
2023-12-11T21:36:31.766Z,5.22
2023-12-11T21:38:59.918Z,6.57
2023-12-11T21:41:27.813Z,6.25
2023-12-11T21:43:57.493Z,7.05
2023-12-11T21:46:27.046Z,6.65
2023-12-11T21:48:58.018Z,6.53
2023-12-11T21:51:29.828Z,7.25
2023-12-11T21:53:57.844Z,5.60
2023-12-11T21:56:26.902Z,6.18
2023-12-11T21:58:55.165Z,6.03
2023-12-11T22:01:23.163Z,6.18
2023-12-11T22:03:51.714Z,5.32
2023-12-11T22:06:20.067Z,5.35
2023-12-11T22:08:49.237Z,5.65
2023-12-11T22:11:18.022Z,5.32
2023-12-11T22:13:47.048Z,5.43
2023-12-11T22:16:16.490Z,5.70
2023-12-11T22:18:45.266Z,5.75
2023-12-11T22:21:13.216Z,6.20
2023-12-11T22:23:41.044Z,6.53
2023-12-11T22:26:10.241Z,7.00
2023-12-11T22:28:39.505Z,7.18
2023-12-11T22:31:07.598Z,6.97
2023-12-11T22:33:35.486Z,7.60
2023-12-11T22:36:04.232Z,7.15
2023-12-11T22:38:32.078Z,7.43
2023-12-11T22:41:00.964Z,7.35
2023-12-11T22:43:30.204Z,7.00
2023-12-11T22:45:58.496Z,6.97
2023-12-11T22:48:26.514Z,6.72
2023-12-11T22:50:54.401Z,6.72
2023-12-11T22:53:22.245Z,6.82
2023-12-11T22:55:50.066Z,6.45
2023-12-11T22:58:18.298Z,6.93
2023-12-11T23:00:47.595Z,6.40
2023-12-11T23:03:15.523Z,5.82
2023-12-11T23:05:43.400Z,6.30
2023-12-11T23:08:11.279Z,5.97
2023-12-11T23:10:39.178Z,5.32
2023-12-11T23:13:07.053Z,5.70
2023-12-11T23:15:34.877Z,5.53
2023-12-11T23:18:04.848Z,5.40
2023-12-11T23:20:32.668Z,5.75
2023-12-11T23:23:00.465Z,5.15
2023-12-11T23:25:28.313Z,4.50
2023-12-11T23:27:56.187Z,5.80
2023-12-11T23:30:24.042Z,4.82
2023-12-11T23:32:52.066Z,5.32
2023-12-11T23:35:21.655Z,4.82
2023-12-11T23:37:49.522Z,4.88
2023-12-11T23:40:17.381Z,4.63
2023-12-11T23:42:45.243Z,4.70
2023-12-11T23:45:13.072Z,4.60
2023-12-11T23:47:40.994Z,4.00
2023-12-11T23:50:09.434Z,5.00
2023-12-11T23:52:38.746Z,4.78
2023-12-11T23:55:07.743Z,4.65
2023-12-11T23:57:36.500Z,4.22
